AR20 weather

Lawrence Memorial Heliport
Walnut Ridge, Arkansas, United States

Public forecast

Using degrees Fahrenheit for public forecast. Weather courtesy of forecast.io.

Closest aviation weather report (METAR) to Lawrence Memorial Heliport

Closest report is Walnut Ridge Regional Airport, 3.7 nm (6.9 km) NE. Retrieved 2020/04/05 21:56 UTC (29 minutes ago):

KARG 052156Z AUTO 14005KT 10SM CLR 20/14 A3006 RMK AO2 SLP181 T02000139

Closest aviation forecast (TAF) to Lawrence Memorial Heliport

Closest forecast is Jonesboro Municipal Airport, 21.4 nm (39.6 km) SE. Retrieved 2020/04/05 18:39 UTC (4 hours ago):

TAF KJBR 051736Z 0518/0618 01005KT P6SM SKC FM061200 05004KT P6SM BKN070 AMD NOT SKED